sensor_id;sensor_type;location;lat;lon;timestamp;pressure;altitude;pressure_sealevel;temperature;humidity
6090;BME280;3073;42.660;23.316;2022-08-03T00:01:46;94575.34;;;20.36;100.00
6090;BME280;3073;42.660;23.316;2022-08-03T00:04:13;94571.69;;;20.37;100.00
6090;BME280;3073;42.660;23.316;2022-08-03T00:06:41;94567.91;;;20.43;100.00
6090;BME280;3073;42.660;23.316;2022-08-03T00:09:09;94568.63;;;20.35;100.00
6090;BME280;3073;42.660;23.316;2022-08-03T00:11:37;94574.53;;;20.27;100.00
6090;BME280;3073;42.660;23.316;2022-08-03T00:14:04;94571.44;;;20.25;100.00
6090;BME280;3073;42.660;23.316;2022-08-03T00:16:32;94568.16;;;20.33;100.00
6090;BME280;3073;42.660;23.316;2022-08-03T00:18:58;94565.75;;;20.36;100.00
6090;BME280;3073;42.660;23.316;2022-08-03T00:21:25;94570.19;;;20.22;100.00
6090;BME280;3073;42.660;23.316;2022-08-03T00:23:53;94569.22;;;20.18;100.00
6090;BME280;3073;42.660;23.316;2022-08-03T00:26:21;94565.22;;;20.12;100.00
6090;BME280;3073;42.660;23.316;2022-08-03T00:28:48;94571.53;;;19.97;100.00
6090;BME280;3073;42.660;23.316;2022-08-03T00:31:14;94573.63;;;19.95;100.00
6090;BME280;3073;42.660;23.316;2022-08-03T00:33:41;94569.72;;;19.98;100.00
6090;BME280;3073;42.660;23.316;2022-08-03T00:36:08;94566.75;;;19.91;100.00
6090;BME280;3073;42.660;23.316;2022-08-03T00:38:35;94569.44;;;19.86;100.00
6090;BME280;3073;42.660;23.316;2022-08-03T00:41:03;94560.13;;;19.85;100.00
6090;BME280;3073;42.660;23.316;2022-08-03T00:43:30;94564.56;;;19.84;100.00
6090;BME280;3073;42.660;23.316;2022-08-03T00:45:57;94569.13;;;20.01;100.00
6090;BME280;3073;42.660;23.316;2022-08-03T00:48:24;94566.41;;;20.06;100.00
6090;BME280;3073;42.660;23.316;2022-08-03T00:50:52;94570.03;;;20.05;100.00
6090;BME280;3073;42.660;23.316;2022-08-03T00:53:19;94565.59;;;19.83;100.00
6090;BME280;3073;42.660;23.316;2022-08-03T00:55:46;94567.75;;;19.81;100.00
6090;BME280;3073;42.660;23.316;2022-08-03T00:58:14;94568.88;;;19.75;100.00
6090;BME280;3073;42.660;23.316;2022-08-03T01:00:42;94567.81;;;19.76;100.00
6090;BME280;3073;42.660;23.316;2022-08-03T01:03:09;94564.03;;;19.60;100.00
6090;BME280;3073;42.660;23.316;2022-08-03T01:05:40;94558.34;;;19.58;100.00
6090;BME280;3073;42.660;23.316;2022-08-03T01:08:18;94558.06;;;19.60;100.00
6090;BME280;3073;42.660;23.316;2022-08-03T01:10:53;94557.31;;;19.59;100.00
6090;BME280;3073;42.660;23.316;2022-08-03T01:13:30;94552.63;;;19.61;100.00
6090;BME280;3073;42.660;23.316;2022-08-03T01:16:05;94551.66;;;19.57;100.00
6090;BME280;3073;42.660;23.316;2022-08-03T01:18:38;94553.28;;;19.53;100.00
6090;BME280;3073;42.660;23.316;2022-08-03T01:21:10;94550.44;;;19.41;100.00
6090;BME280;3073;42.660;23.316;2022-08-03T01:24:06;94545.91;;;19.46;100.00
6090;BME280;3073;42.660;23.316;2022-08-03T01:27:02;94551.34;;;19.59;100.00
6090;BME280;3073;42.660;23.316;2022-08-03T01:29:58;94550.06;;;19.47;100.00
6090;BME280;3073;42.660;23.316;2022-08-03T01:32:33;94547.06;;;19.27;100.00
6090;BME280;3073;42.660;23.316;2022-08-03T01:35:03;94549.25;;;19.20;100.00
6090;BME280;3073;42.660;23.316;2022-08-03T01:37:36;94551.72;;;19.38;100.00
6090;BME280;3073;42.660;23.316;2022-08-03T01:40:05;94550.03;;;19.34;100.00
6090;BME280;3073;42.660;23.316;2022-08-03T01:42:35;94555.78;;;19.17;100.00
6090;BME280;3073;42.660;23.316;2022-08-03T01:45:06;94558.56;;;19.21;100.00
6090;BME280;3073;42.660;23.316;2022-08-03T01:47:35;94558.25;;;18.95;100.00
6090;BME280;3073;42.660;23.316;2022-08-03T01:50:03;94560.84;;;18.81;100.00
6090;BME280;3073;42.660;23.316;2022-08-03T01:52:31;94556.78;;;18.75;100.00
6090;BME280;3073;42.660;23.316;2022-08-03T01:55:00;94562.94;;;18.79;100.00
6090;BME280;3073;42.660;23.316;2022-08-03T01:57:29;94560.06;;;18.81;100.00
6090;BME280;3073;42.660;23.316;2022-08-03T01:59:58;94558.91;;;18.73;100.00
6090;BME280;3073;42.660;23.316;2022-08-03T02:02:28;94568.78;;;18.71;100.00
6090;BME280;3073;42.660;23.316;2022-08-03T02:04:57;94568.56;;;18.68;100.00
6090;BME280;3073;42.660;23.316;2022-08-03T02:07:27;94567.31;;;18.46;100.00
6090;BME280;3073;42.660;23.316;2022-08-03T02:09:55;94563.84;;;18.37;100.00
6090;BME280;3073;42.660;23.316;2022-08-03T02:12:24;94564.13;;;18.55;100.00
6090;BME280;3073;42.660;23.316;2022-08-03T02:14:53;94558.66;;;18.56;100.00
6090;BME280;3073;42.660;23.316;2022-08-03T02:17:22;94558.03;;;18.64;100.00
6090;BME280;3073;42.660;23.316;2022-08-03T02:19:52;94564.25;;;18.63;100.00
6090;BME280;3073;42.660;23.316;2022-08-03T02:22:20;94559.91;;;18.59;100.00
6090;BME280;3073;42.660;23.316;2022-08-03T02:24:48;94560.97;;;18.58;100.00
6090;BME280;3073;42.660;23.316;2022-08-03T02:27:19;94558.81;;;18.78;100.00
6090;BME280;3073;42.660;23.316;2022-08-03T02:29:51;94558.97;;;18.68;100.00
6090;BME280;3073;42.660;23.316;2022-08-03T02:32:23;94551.06;;;18.46;100.00
6090;BME280;3073;42.660;23.316;2022-08-03T02:34:56;94548.53;;;18.27;100.00
6090;BME280;3073;42.660;23.316;2022-08-03T02:37:27;94562.13;;;18.33;100.00
6090;BME280;3073;42.660;23.316;2022-08-03T02:40:00;94555.88;;;18.52;100.00
6090;BME280;3073;42.660;23.316;2022-08-03T02:42:28;94552.28;;;18.67;100.00
6090;BME280;3073;42.660;23.316;2022-08-03T02:44:59;94554.78;;;18.72;100.00
6090;BME280;3073;42.660;23.316;2022-08-03T02:47:28;94555.72;;;18.63;100.00
6090;BME280;3073;42.660;23.316;2022-08-03T02:49:59;94549.50;;;18.45;100.00
6090;BME280;3073;42.660;23.316;2022-08-03T02:52:29;94555.09;;;18.52;100.00
6090;BME280;3073;42.660;23.316;2022-08-03T02:55:01;94558.22;;;18.49;100.00
6090;BME280;3073;42.660;23.316;2022-08-03T02:57:30;94552.41;;;18.43;100.00
6090;BME280;3073;42.660;23.316;2022-08-03T02:59:59;94553.72;;;18.41;100.00
6090;BME280;3073;42.660;23.316;2022-08-03T03:02:27;94559.06;;;18.31;100.00
6090;BME280;3073;42.660;23.316;2022-08-03T03:04:55;94560.78;;;18.35;100.00
6090;BME280;3073;42.660;23.316;2022-08-03T03:07:23;94563.41;;;18.49;100.00
6090;BME280;3073;42.660;23.316;2022-08-03T03:09:52;94567.13;;;18.43;100.00
6090;BME280;3073;42.660;23.316;2022-08-03T03:12:20;94567.38;;;18.41;100.00
6090;BME280;3073;42.660;23.316;2022-08-03T03:14:47;94569.38;;;18.31;100.00
6090;BME280;3073;42.660;23.316;2022-08-03T03:17:15;94570.13;;;18.31;100.00
6090;BME280;3073;42.660;23.316;2022-08-03T03:19:43;94579.16;;;18.34;100.00
6090;BME280;3073;42.660;23.316;2022-08-03T03:22:12;94582.50;;;18.34;100.00
6090;BME280;3073;42.660;23.316;2022-08-03T03:24:43;94588.03;;;18.28;100.00
6090;BME280;3073;42.660;23.316;2022-08-03T03:27:10;94588.34;;;18.40;100.00
6090;BME280;3073;42.660;23.316;2022-08-03T03:29:39;94584.31;;;18.34;100.00
6090;BME280;3073;42.660;23.316;2022-08-03T03:32:06;94592.63;;;18.31;100.00
6090;BME280;3073;42.660;23.316;2022-08-03T03:34:33;94598.38;;;18.28;100.00
6090;BME280;3073;42.660;23.316;2022-08-03T03:37:00;94595.84;;;18.23;100.00
6090;BME280;3073;42.660;23.316;2022-08-03T03:39:28;94593.56;;;18.21;100.00
6090;BME280;3073;42.660;23.316;2022-08-03T03:41:57;94586.19;;;18.28;100.00
6090;BME280;3073;42.660;23.316;2022-08-03T03:44:25;94591.56;;;18.32;100.00
6090;BME280;3073;42.660;23.316;2022-08-03T03:46:53;94593.69;;;18.30;100.00
6090;BME280;3073;42.660;23.316;2022-08-03T03:49:20;94592.91;;;18.29;100.00
6090;BME280;3073;42.660;23.316;2022-08-03T03:51:47;94593.69;;;18.30;100.00
6090;BME280;3073;42.660;23.316;2022-08-03T03:54:14;94596.16;;;18.35;100.00
6090;BME280;3073;42.660;23.316;2022-08-03T03:56:41;94602.06;;;18.22;100.00
6090;BME280;3073;42.660;23.316;2022-08-03T03:59:09;94603.59;;;18.23;100.00
6090;BME280;3073;42.660;23.316;2022-08-03T04:01:37;94603.66;;;17.99;100.00
6090;BME280;3073;42.660;23.316;2022-08-03T04:04:04;94605.25;;;17.95;100.00
6090;BME280;3073;42.660;23.316;2022-08-03T04:06:45;94595.09;;;18.04;100.00
6090;BME280;3073;42.660;23.316;2022-08-03T04:09:30;94599.75;;;18.20;100.00
6090;BME280;3073;42.660;23.316;2022-08-03T04:12:16;94600.19;;;18.27;100.00
6090;BME280;3073;42.660;23.316;2022-08-03T04:14:47;94592.97;;;18.43;100.00
6090;BME280;3073;42.660;23.316;2022-08-03T04:17:15;94595.69;;;18.51;100.00
6090;BME280;3073;42.660;23.316;2022-08-03T04:19:48;94594.78;;;18.61;100.00
6090;BME280;3073;42.660;23.316;2022-08-03T04:22:18;94596.06;;;18.77;100.00
6090;BME280;3073;42.660;23.316;2022-08-03T04:24:47;94600.00;;;18.88;100.00
6090;BME280;3073;42.660;23.316;2022-08-03T04:27:18;94605.34;;;18.78;100.00
6090;BME280;3073;42.660;23.316;2022-08-03T04:29:49;94606.88;;;18.79;100.00
6090;BME280;3073;42.660;23.316;2022-08-03T04:32:18;94601.06;;;18.87;100.00
6090;BME280;3073;42.660;23.316;2022-08-03T04:34:48;94605.38;;;18.92;100.00
6090;BME280;3073;42.660;23.316;2022-08-03T04:37:21;94598.97;;;19.03;100.00
6090;BME280;3073;42.660;23.316;2022-08-03T04:39:50;94603.19;;;19.13;100.00
6090;BME280;3073;42.660;23.316;2022-08-03T04:42:19;94610.50;;;19.24;100.00
6090;BME280;3073;42.660;23.316;2022-08-03T04:44:50;94611.06;;;19.35;100.00
6090;BME280;3073;42.660;23.316;2022-08-03T04:47:18;94610.97;;;19.40;100.00
6090;BME280;3073;42.660;23.316;2022-08-03T04:49:46;94619.53;;;19.54;100.00
6090;BME280;3073;42.660;23.316;2022-08-03T04:52:13;94619.25;;;19.56;100.00
6090;BME280;3073;42.660;23.316;2022-08-03T04:54:41;94615.78;;;19.74;100.00
6090;BME280;3073;42.660;23.316;2022-08-03T04:57:08;94610.97;;;19.94;100.00
6090;BME280;3073;42.660;23.316;2022-08-03T04:59:36;94615.06;;;19.95;100.00
6090;BME280;3073;42.660;23.316;2022-08-03T05:02:04;94616.66;;;20.05;100.00
6090;BME280;3073;42.660;23.316;2022-08-03T05:04:31;94625.50;;;20.18;100.00
6090;BME280;3073;42.660;23.316;2022-08-03T05:06:58;94629.72;;;20.27;100.00
6090;BME280;3073;42.660;23.316;2022-08-03T05:09:25;94630.44;;;20.41;100.00
6090;BME280;3073;42.660;23.316;2022-08-03T05:11:51;94631.72;;;20.52;100.00
6090;BME280;3073;42.660;23.316;2022-08-03T05:14:18;94632.41;;;20.58;100.00
6090;BME280;3073;42.660;23.316;2022-08-03T05:16:45;94638.63;;;20.57;100.00
6090;BME280;3073;42.660;23.316;2022-08-03T05:19:13;94639.03;;;20.73;100.00
6090;BME280;3073;42.660;23.316;2022-08-03T05:21:40;94651.28;;;20.59;100.00
6090;BME280;3073;42.660;23.316;2022-08-03T05:24:07;94646.81;;;20.50;100.00
6090;BME280;3073;42.660;23.316;2022-08-03T05:26:34;94645.88;;;20.69;100.00
6090;BME280;3073;42.660;23.316;2022-08-03T05:29:01;94649.59;;;20.76;100.00
6090;BME280;3073;42.660;23.316;2022-08-03T05:31:28;94648.72;;;20.81;100.00
6090;BME280;3073;42.660;23.316;2022-08-03T05:33:56;94650.75;;;20.92;100.00
6090;BME280;3073;42.660;23.316;2022-08-03T05:36:24;94655.06;;;20.97;100.00
6090;BME280;3073;42.660;23.316;2022-08-03T05:38:51;94660.25;;;21.19;100.00
6090;BME280;3073;42.660;23.316;2022-08-03T05:41:18;94650.03;;;21.23;100.00
6090;BME280;3073;42.660;23.316;2022-08-03T05:43:45;94652.72;;;21.40;100.00
6090;BME280;3073;42.660;23.316;2022-08-03T05:46:12;94658.44;;;21.59;100.00
6090;BME280;3073;42.660;23.316;2022-08-03T05:48:40;94663.06;;;21.71;100.00
6090;BME280;3073;42.660;23.316;2022-08-03T05:51:07;94661.81;;;22.08;100.00
6090;BME280;3073;42.660;23.316;2022-08-03T05:53:37;94660.31;;;22.41;100.00
6090;BME280;3073;42.660;23.316;2022-08-03T05:56:04;94667.41;;;23.30;100.00
6090;BME280;3073;42.660;23.316;2022-08-03T05:58:31;94666.75;;;24.08;100.00
6090;BME280;3073;42.660;23.316;2022-08-03T06:00:58;94661.84;;;24.78;100.00
6090;BME280;3073;42.660;23.316;2022-08-03T06:03:25;94661.53;;;25.57;97.20
6090;BME280;3073;42.660;23.316;2022-08-03T06:05:53;94670.34;;;25.89;95.04
6090;BME280;3073;42.660;23.316;2022-08-03T06:08:20;94668.78;;;26.48;89.27
6090;BME280;3073;42.660;23.316;2022-08-03T06:10:49;94672.69;;;27.10;86.64
6090;BME280;3073;42.660;23.316;2022-08-03T06:13:16;94677.34;;;27.17;82.15
6090;BME280;3073;42.660;23.316;2022-08-03T06:15:43;94672.00;;;27.72;80.10
6090;BME280;3073;42.660;23.316;2022-08-03T06:18:09;94673.00;;;28.15;76.11
6090;BME280;3073;42.660;23.316;2022-08-03T06:20:36;94679.00;;;28.69;72.87
6090;BME280;3073;42.660;23.316;2022-08-03T06:23:03;94669.97;;;28.67;68.46
6090;BME280;3073;42.660;23.316;2022-08-03T06:25:30;94674.72;;;28.99;68.20
6090;BME280;3073;42.660;23.316;2022-08-03T06:27:59;94679.44;;;28.71;67.09
6090;BME280;3073;42.660;23.316;2022-08-03T06:30:26;94681.63;;;28.50;66.77
6090;BME280;3073;42.660;23.316;2022-08-03T06:32:52;94675.22;;;27.81;71.32
6090;BME280;3073;42.660;23.316;2022-08-03T06:35:19;94678.13;;;27.45;73.91
6090;BME280;3073;42.660;23.316;2022-08-03T06:37:47;94674.50;;;28.16;69.57
6090;BME280;3073;42.660;23.316;2022-08-03T06:40:16;94670.59;;;28.79;69.60
6090;BME280;3073;42.660;23.316;2022-08-03T06:42:43;94672.75;;;27.88;69.68
6090;BME280;3073;42.660;23.316;2022-08-03T06:45:12;94674.13;;;27.51;74.28
6090;BME280;3073;42.660;23.316;2022-08-03T06:47:39;94671.00;;;27.02;75.87
6090;BME280;3073;42.660;23.316;2022-08-03T06:50:07;94672.38;;;27.27;72.75
6090;BME280;3073;42.660;23.316;2022-08-03T06:52:35;94670.31;;;27.64;70.64
6090;BME280;3073;42.660;23.316;2022-08-03T06:55:02;94667.31;;;28.12;68.77
6090;BME280;3073;42.660;23.316;2022-08-03T06:57:29;94663.22;;;28.31;67.61
6090;BME280;3073;42.660;23.316;2022-08-03T06:59:56;94663.88;;;29.24;64.67
6090;BME280;3073;42.660;23.316;2022-08-03T07:02:27;94671.63;;;30.34;58.30
6090;BME280;3073;42.660;23.316;2022-08-03T07:04:55;94668.19;;;28.36;61.20
6090;BME280;3073;42.660;23.316;2022-08-03T07:07:22;94661.13;;;29.58;60.05
6090;BME280;3073;42.660;23.316;2022-08-03T07:09:49;94665.16;;;29.75;59.60
6090;BME280;3073;42.660;23.316;2022-08-03T07:12:16;94665.31;;;29.63;59.58
6090;BME280;3073;42.660;23.316;2022-08-03T07:14:43;94664.56;;;29.62;59.21
6090;BME280;3073;42.660;23.316;2022-08-03T07:17:10;94669.84;;;30.11;58.59
6090;BME280;3073;42.660;23.316;2022-08-03T07:19:38;94670.81;;;30.30;56.69
6090;BME280;3073;42.660;23.316;2022-08-03T07:22:05;94671.09;;;30.47;55.60
6090;BME280;3073;42.660;23.316;2022-08-03T07:24:33;94673.50;;;30.59;54.19
6090;BME280;3073;42.660;23.316;2022-08-03T07:27:00;94667.59;;;31.03;53.68
6090;BME280;3073;42.660;23.316;2022-08-03T07:29:27;94674.53;;;31.55;52.65
6090;BME280;3073;42.660;23.316;2022-08-03T07:31:53;94671.38;;;31.39;51.11
6090;BME280;3073;42.660;23.316;2022-08-03T07:34:20;94680.88;;;31.94;50.69
6090;BME280;3073;42.660;23.316;2022-08-03T07:36:48;94670.91;;;31.74;50.91
6090;BME280;3073;42.660;23.316;2022-08-03T07:39:15;94676.13;;;31.26;50.55
6090;BME280;3073;42.660;23.316;2022-08-03T07:41:42;94673.28;;;31.42;48.72
6090;BME280;3073;42.660;23.316;2022-08-03T07:44:09;94677.75;;;31.78;49.37
6090;BME280;3073;42.660;23.316;2022-08-03T07:46:36;94682.13;;;32.69;45.74
6090;BME280;3073;42.660;23.316;2022-08-03T07:49:03;94674.88;;;31.13;47.26
6090;BME280;3073;42.660;23.316;2022-08-03T07:51:30;94681.16;;;31.79;47.03
6090;BME280;3073;42.660;23.316;2022-08-03T07:53:59;94678.44;;;31.72;47.29
6090;BME280;3073;42.660;23.316;2022-08-03T07:56:26;94680.81;;;32.38;47.34
6090;BME280;3073;42.660;23.316;2022-08-03T07:58:54;94682.16;;;32.83;44.72
6090;BME280;3073;42.660;23.316;2022-08-03T08:01:21;94685.72;;;33.47;44.76
6090;BME280;3073;42.660;23.316;2022-08-03T08:03:48;94691.19;;;32.72;42.88
6090;BME280;3073;42.660;23.316;2022-08-03T08:06:16;94684.25;;;31.91;43.50
6090;BME280;3073;42.660;23.316;2022-08-03T08:08:43;94682.44;;;32.02;42.92
6090;BME280;3073;42.660;23.316;2022-08-03T08:11:11;94685.38;;;31.90;44.45
6090;BME280;3073;42.660;23.316;2022-08-03T08:13:38;94685.50;;;32.04;43.75
6090;BME280;3073;42.660;23.316;2022-08-03T08:16:05;94686.34;;;31.68;45.79
6090;BME280;3073;42.660;23.316;2022-08-03T08:18:32;94685.69;;;31.01;45.80
6090;BME280;3073;42.660;23.316;2022-08-03T08:20:59;94681.72;;;31.58;46.32
6090;BME280;3073;42.660;23.316;2022-08-03T08:23:27;94681.13;;;32.30;44.15
6090;BME280;3073;42.660;23.316;2022-08-03T08:25:54;94686.59;;;32.61;45.02
6090;BME280;3073;42.660;23.316;2022-08-03T08:28:23;94686.91;;;33.71;42.69
6090;BME280;3073;42.660;23.316;2022-08-03T08:30:50;94685.53;;;32.77;43.13
6090;BME280;3073;42.660;23.316;2022-08-03T08:33:16;94683.66;;;31.64;43.61
6090;BME280;3073;42.660;23.316;2022-08-03T08:35:43;94681.41;;;32.93;42.75
6090;BME280;3073;42.660;23.316;2022-08-03T08:38:10;94675.53;;;33.63;40.91
6090;BME280;3073;42.660;23.316;2022-08-03T08:40:37;94681.22;;;33.90;41.41
6090;BME280;3073;42.660;23.316;2022-08-03T08:43:04;94678.19;;;33.78;39.67
6090;BME280;3073;42.660;23.316;2022-08-03T08:45:32;94676.66;;;34.08;39.63
6090;BME280;3073;42.660;23.316;2022-08-03T08:48:03;94667.59;;;33.81;39.85
6090;BME280;3073;42.660;23.316;2022-08-03T08:50:31;94670.25;;;33.92;39.59
6090;BME280;3073;42.660;23.316;2022-08-03T08:53:01;94678.97;;;33.82;40.07
6090;BME280;3073;42.660;23.316;2022-08-03T08:55:28;94675.41;;;33.03;40.05
6090;BME280;3073;42.660;23.316;2022-08-03T08:57:59;94674.66;;;33.06;39.91
6090;BME280;3073;42.660;23.316;2022-08-03T09:00:28;94664.56;;;31.38;42.63
6090;BME280;3073;42.660;23.316;2022-08-03T09:02:57;94655.03;;;29.77;45.46
6090;BME280;3073;42.660;23.316;2022-08-03T09:05:26;94659.81;;;31.13;45.07
6090;BME280;3073;42.660;23.316;2022-08-03T09:07:57;94663.22;;;32.71;42.07
6090;BME280;3073;42.660;23.316;2022-08-03T09:10:24;94663.97;;;32.68;40.25
6090;BME280;3073;42.660;23.316;2022-08-03T09:12:51;94661.97;;;32.50;40.49
6090;BME280;3073;42.660;23.316;2022-08-03T09:15:20;94666.28;;;32.83;39.24
6090;BME280;3073;42.660;23.316;2022-08-03T09:17:50;94666.44;;;33.96;38.85
6090;BME280;3073;42.660;23.316;2022-08-03T09:20:20;94664.44;;;34.64;38.74
6090;BME280;3073;42.660;23.316;2022-08-03T09:22:53;94662.34;;;35.69;36.04
6090;BME280;3073;42.660;23.316;2022-08-03T09:25:29;94671.91;;;36.45;34.42
6090;BME280;3073;42.660;23.316;2022-08-03T09:28:04;94668.56;;;37.32;33.07
6090;BME280;3073;42.660;23.316;2022-08-03T09:30:31;94663.75;;;36.93;32.28
6090;BME280;3073;42.660;23.316;2022-08-03T09:32:59;94664.13;;;37.98;31.79
6090;BME280;3073;42.660;23.316;2022-08-03T09:35:28;94657.97;;;38.64;30.49
6090;BME280;3073;42.660;23.316;2022-08-03T09:38:12;94661.63;;;38.31;31.01
6090;BME280;3073;42.660;23.316;2022-08-03T09:40:41;94662.66;;;37.17;32.20
6090;BME280;3073;42.660;23.316;2022-08-03T09:43:08;94658.66;;;37.82;31.91
6090;BME280;3073;42.660;23.316;2022-08-03T09:45:36;94660.72;;;37.21;30.97
6090;BME280;3073;42.660;23.316;2022-08-03T09:48:21;94657.31;;;38.17;31.27
6090;BME280;3073;42.660;23.316;2022-08-03T09:50:51;94665.47;;;37.33;31.82
6090;BME280;3073;42.660;23.316;2022-08-03T09:53:19;94651.19;;;36.63;32.77
6090;BME280;3073;42.660;23.316;2022-08-03T09:55:50;94655.59;;;36.02;32.12
6090;BME280;3073;42.660;23.316;2022-08-03T09:58:19;94650.00;;;35.93;33.13
6090;BME280;3073;42.660;23.316;2022-08-03T10:00:54;94651.72;;;35.69;34.70
6090;BME280;3073;42.660;23.316;2022-08-03T10:03:22;94647.09;;;35.25;34.59
6090;BME280;3073;42.660;23.316;2022-08-03T10:05:51;94648.84;;;36.35;33.83
6090;BME280;3073;42.660;23.316;2022-08-03T10:08:19;94643.91;;;36.33;33.15
6090;BME280;3073;42.660;23.316;2022-08-03T10:10:48;94646.16;;;37.56;31.14
6090;BME280;3073;42.660;23.316;2022-08-03T10:13:19;94642.50;;;36.59;32.03
6090;BME280;3073;42.660;23.316;2022-08-03T10:15:46;94639.72;;;35.95;32.62
6090;BME280;3073;42.660;23.316;2022-08-03T10:18:13;94640.03;;;37.05;31.66
6090;BME280;3073;42.660;23.316;2022-08-03T10:20:45;94634.53;;;37.93;31.21
6090;BME280;3073;42.660;23.316;2022-08-03T10:23:15;94639.44;;;38.37;30.67
6090;BME280;3073;42.660;23.316;2022-08-03T10:25:46;94640.78;;;36.04;32.70
6090;BME280;3073;42.660;23.316;2022-08-03T10:28:16;94637.97;;;36.22;32.65
6090;BME280;3073;42.660;23.316;2022-08-03T10:30:48;94633.06;;;36.51;33.23
6090;BME280;3073;42.660;23.316;2022-08-03T10:33:18;94634.25;;;37.10;31.88
6090;BME280;3073;42.660;23.316;2022-08-03T10:35:46;94638.22;;;37.52;31.13
6090;BME280;3073;42.660;23.316;2022-08-03T10:38:21;94630.31;;;38.35;30.10
6090;BME280;3073;42.660;23.316;2022-08-03T10:40:52;94622.19;;;38.61;31.34
6090;BME280;3073;42.660;23.316;2022-08-03T10:43:21;94619.16;;;38.20;30.82
6090;BME280;3073;42.660;23.316;2022-08-03T10:45:51;94630.69;;;36.90;31.16
6090;BME280;3073;42.660;23.316;2022-08-03T10:48:18;94613.56;;;37.22;30.86
6090;BME280;3073;42.660;23.316;2022-08-03T10:50:47;94625.03;;;35.83;32.00
6090;BME280;3073;42.660;23.316;2022-08-03T10:53:15;94621.75;;;35.69;33.88
6090;BME280;3073;42.660;23.316;2022-08-03T10:55:44;94622.81;;;35.78;34.32
6090;BME280;3073;42.660;23.316;2022-08-03T10:58:47;94629.28;;;36.52;32.75
6090;BME280;3073;42.660;23.316;2022-08-03T11:01:16;94618.38;;;36.43;31.89
6090;BME280;3073;42.660;23.316;2022-08-03T11:04:13;94618.75;;;37.05;32.03
6090;BME280;3073;42.660;23.316;2022-08-03T11:06:41;94615.44;;;37.48;33.07
6090;BME280;3073;42.660;23.316;2022-08-03T11:09:17;94616.59;;;37.70;32.10
6090;BME280;3073;42.660;23.316;2022-08-03T11:11:47;94611.97;;;37.74;31.67
6090;BME280;3073;42.660;23.316;2022-08-03T11:14:16;94608.03;;;37.09;32.23
6090;BME280;3073;42.660;23.316;2022-08-03T11:16:45;94605.25;;;36.89;31.31
6090;BME280;3073;42.660;23.316;2022-08-03T11:19:14;94612.97;;;36.80;30.74
6090;BME280;3073;42.660;23.316;2022-08-03T11:21:57;94600.97;;;37.72;29.98
6090;BME280;3073;42.660;23.316;2022-08-03T11:25:00;94603.13;;;37.31;29.96
6090;BME280;3073;42.660;23.316;2022-08-03T11:27:33;94599.75;;;37.53;29.63
6090;BME280;3073;42.660;23.316;2022-08-03T11:30:04;94591.16;;;36.92;29.61
6090;BME280;3073;42.660;23.316;2022-08-03T11:32:51;94594.47;;;36.39;30.50
6090;BME280;3073;42.660;23.316;2022-08-03T11:35:19;94582.88;;;36.83;30.57
6090;BME280;3073;42.660;23.316;2022-08-03T11:38:09;94582.44;;;37.42;30.50
6090;BME280;3073;42.660;23.316;2022-08-03T11:40:39;94584.97;;;36.99;30.13
6090;BME280;3073;42.660;23.316;2022-08-03T11:43:09;94578.34;;;35.86;31.15
6090;BME280;3073;42.660;23.316;2022-08-03T11:45:36;94573.22;;;36.39;31.29
6090;BME280;3073;42.660;23.316;2022-08-03T11:48:14;94581.78;;;36.50;30.91
6090;BME280;3073;42.660;23.316;2022-08-03T11:50:41;94582.28;;;37.02;31.14
6090;BME280;3073;42.660;23.316;2022-08-03T11:53:13;94575.75;;;37.30;30.50
6090;BME280;3073;42.660;23.316;2022-08-03T11:55:41;94570.50;;;37.73;30.26
6090;BME280;3073;42.660;23.316;2022-08-03T11:58:19;94568.38;;;37.84;31.21
6090;BME280;3073;42.660;23.316;2022-08-03T12:00:46;94574.66;;;37.97;31.03
6090;BME280;3073;42.660;23.316;2022-08-03T12:03:15;94569.31;;;37.97;29.26
6090;BME280;3073;42.660;23.316;2022-08-03T12:05:45;94571.25;;;37.74;29.92
6090;BME280;3073;42.660;23.316;2022-08-03T12:08:14;94570.00;;;37.58;30.25
6090;BME280;3073;42.660;23.316;2022-08-03T12:10:47;94566.25;;;36.49;32.05
6090;BME280;3073;42.660;23.316;2022-08-03T12:13:16;94569.03;;;35.67;32.14
6090;BME280;3073;42.660;23.316;2022-08-03T12:15:49;94568.81;;;34.92;33.39
6090;BME280;3073;42.660;23.316;2022-08-03T12:18:17;94561.47;;;34.52;34.09
6090;BME280;3073;42.660;23.316;2022-08-03T12:20:45;94555.50;;;34.23;34.37
6090;BME280;3073;42.660;23.316;2022-08-03T12:23:13;94556.69;;;34.08;35.65
6090;BME280;3073;42.660;23.316;2022-08-03T12:25:41;94557.50;;;33.94;35.23
6090;BME280;3073;42.660;23.316;2022-08-03T12:28:14;94553.75;;;33.60;35.76
6090;BME280;3073;42.660;23.316;2022-08-03T12:30:48;94557.56;;;33.31;35.81
6090;BME280;3073;42.660;23.316;2022-08-03T12:33:21;94552.25;;;33.17;36.10
6090;BME280;3073;42.660;23.316;2022-08-03T12:36:01;94553.41;;;33.26;36.55
6090;BME280;3073;42.660;23.316;2022-08-03T12:38:29;94552.28;;;33.24;35.65
6090;BME280;3073;42.660;23.316;2022-08-03T12:41:02;94551.88;;;33.68;35.61
6090;BME280;3073;42.660;23.316;2022-08-03T12:43:29;94546.59;;;33.64;36.28
6090;BME280;3073;42.660;23.316;2022-08-03T12:46:09;94549.22;;;33.50;36.41
6090;BME280;3073;42.660;23.316;2022-08-03T12:48:36;94543.94;;;33.64;34.64
6090;BME280;3073;42.660;23.316;2022-08-03T12:51:08;94545.31;;;34.22;34.65
6090;BME280;3073;42.660;23.316;2022-08-03T12:53:35;94539.75;;;33.70;35.59
6090;BME280;3073;42.660;23.316;2022-08-03T12:56:04;94547.03;;;34.53;35.11
6090;BME280;3073;42.660;23.316;2022-08-03T12:58:33;94538.84;;;34.99;35.75
6090;BME280;3073;42.660;23.316;2022-08-03T13:01:01;94536.81;;;34.62;33.99
6090;BME280;3073;42.660;23.316;2022-08-03T13:03:38;94540.69;;;34.36;34.46
6090;BME280;3073;42.660;23.316;2022-08-03T13:06:10;94534.69;;;34.29;34.31
6090;BME280;3073;42.660;23.316;2022-08-03T13:08:37;94531.69;;;34.20;34.63
6090;BME280;3073;42.660;23.316;2022-08-03T13:11:17;94535.56;;;33.90;35.27
6090;BME280;3073;42.660;23.316;2022-08-03T13:13:44;94529.22;;;33.38;35.52
6090;BME280;3073;42.660;23.316;2022-08-03T13:16:12;94526.34;;;32.14;36.17
6090;BME280;3073;42.660;23.316;2022-08-03T13:18:41;94525.06;;;31.84;36.45